createdAt,value
2022-08-17T00:01:52.397Z,4.85
2022-08-17T00:04:23.812Z,4.40
2022-08-17T00:06:54.116Z,4.88
2022-08-17T00:09:24.703Z,4.97
2022-08-17T00:12:40.422Z,5.00
2022-08-17T00:14:45.083Z,5.03
2022-08-17T00:17:18.429Z,5.07
2022-08-17T00:22:33.585Z,5.20
2022-08-17T00:25:07.544Z,5.15
2022-08-17T00:27:39.119Z,5.25
2022-08-17T00:30:12.970Z,4.88
2022-08-17T00:33:14.032Z,4.60
2022-08-17T00:35:41.494Z,4.70
2022-08-17T00:38:12.819Z,4.43
2022-08-17T00:40:45.610Z,5.45
2022-08-17T00:43:19.447Z,5.35
2022-08-17T00:45:51.076Z,5.15
2022-08-17T00:48:30.283Z,4.93
2022-08-17T00:51:06.036Z,5.18
2022-08-17T00:53:41.028Z,4.88
2022-08-17T00:56:33.236Z,5.18
2022-08-17T00:59:05.610Z,5.43
2022-08-17T01:01:36.796Z,5.28
2022-08-17T01:04:10.949Z,5.10
2022-08-17T01:06:43.598Z,5.13
2022-08-17T01:09:14.447Z,4.55
2022-08-17T01:11:45.401Z,5.03
2022-08-17T01:14:15.709Z,4.60
2022-08-17T01:16:45.999Z,5.97
2022-08-17T01:19:22.898Z,4.45
2022-08-17T01:21:58.423Z,5.00
2022-08-17T01:24:34.319Z,4.80
2022-08-17T01:27:10.128Z,5.22
2022-08-17T01:29:44.080Z,4.68
2022-08-17T01:34:50.655Z,5.15
2022-08-17T01:37:23.749Z,4.85
2022-08-17T01:40:03.071Z,4.35
2022-08-17T01:42:39.434Z,4.75
2022-08-17T01:45:14.826Z,5.07
2022-08-17T01:47:46.168Z,5.38
2022-08-17T01:50:19.541Z,5.63
2022-08-17T01:55:28.155Z,5.20
2022-08-17T01:57:58.619Z,6.50
2022-08-17T02:00:46.607Z,5.85
2022-08-17T02:03:20.976Z,5.32
2022-08-17T02:05:53.390Z,5.20
2022-08-17T02:08:37.096Z,5.93
2022-08-17T02:11:15.967Z,7.35
2022-08-17T02:13:46.748Z,7.35
2022-08-17T02:16:18.327Z,5.75
2022-08-17T02:18:49.571Z,5.75
2022-08-17T02:21:20.253Z,7.47
2022-08-17T02:23:52.467Z,5.70
2022-08-17T02:26:26.257Z,5.55
2022-08-17T02:28:56.976Z,5.40
2022-08-17T02:31:27.160Z,6.22
2022-08-17T02:34:03.659Z,6.00
2022-08-17T02:36:36.082Z,5.50
2022-08-17T02:39:08.065Z,5.70
2022-08-17T02:41:41.846Z,5.93
2022-08-17T02:44:12.341Z,5.35
2022-08-17T02:46:42.664Z,5.90
2022-08-17T02:49:12.920Z,5.90
2022-08-17T02:51:43.019Z,6.88
2022-08-17T02:54:40.053Z,6.55
2022-08-17T02:57:06.175Z,6.93
2022-08-17T02:59:36.358Z,7.32
2022-08-17T03:02:06.930Z,6.88
2022-08-17T03:04:37.129Z,6.13
2022-08-17T03:07:08.195Z,7.13
2022-08-17T03:09:38.332Z,7.10
2022-08-17T03:12:13.675Z,6.00
2022-08-17T03:14:45.582Z,6.40
2022-08-17T03:17:17.109Z,5.80
2022-08-17T03:19:48.054Z,5.90
2022-08-17T03:22:36.828Z,7.55
2022-08-17T03:25:11.249Z,6.53
2022-08-17T03:30:19.580Z,7.00
2022-08-17T03:32:53.610Z,6.07
2022-08-17T03:35:27.140Z,5.85
2022-08-17T03:38:00.329Z,7.55
2022-08-17T03:40:55.544Z,6.75
2022-08-17T03:43:25.758Z,7.80
2022-08-17T03:46:32.457Z,6.68
2022-08-17T03:49:19.535Z,6.18
2022-08-17T03:52:02.018Z,6.97
2022-08-17T03:54:44.509Z,6.40
2022-08-17T03:57:14.987Z,6.90
2022-08-17T03:59:48.025Z,6.65
2022-08-17T04:02:22.175Z,6.80
2022-08-17T04:04:53.051Z,6.68
2022-08-17T04:07:25.320Z,6.40
2022-08-17T04:09:55.462Z,6.40
2022-08-17T04:12:31.131Z,6.53
2022-08-17T04:15:04.076Z,6.40
2022-08-17T04:17:34.186Z,7.13
2022-08-17T04:20:04.326Z,8.30
2022-08-17T04:22:34.559Z,7.15
2022-08-17T04:25:07.936Z,7.15
2022-08-17T04:27:38.116Z,7.45
2022-08-17T04:30:12.806Z,6.47
2022-08-17T04:33:02.291Z,7.35
2022-08-17T04:35:38.962Z,6.80
2022-08-17T04:38:12.262Z,7.47
2022-08-17T04:40:55.081Z,6.53
2022-08-17T04:43:27.995Z,6.38
2022-08-17T04:46:03.630Z,6.70
2022-08-17T04:48:37.636Z,6.85
2022-08-17T04:51:10.900Z,7.38
2022-08-17T04:53:42.724Z,7.25
2022-08-17T04:56:16.668Z,7.53
2022-08-17T04:58:49.809Z,8.07
2022-08-17T05:01:26.013Z,6.95
2022-08-17T05:03:59.206Z,6.43
2022-08-17T05:06:30.708Z,6.28
2022-08-17T05:09:01.801Z,7.53
2022-08-17T05:11:32.800Z,5.88
2022-08-17T05:14:02.923Z,6.30
2022-08-17T05:16:35.724Z,6.43
2022-08-17T05:19:06.059Z,7.22
2022-08-17T05:21:36.290Z,6.97
2022-08-17T05:24:09.678Z,7.43
2022-08-17T05:27:01.372Z,6.90
2022-08-17T05:29:35.868Z,7.35
2022-08-17T05:32:39.173Z,7.75
2022-08-17T05:35:05.172Z,6.60
2022-08-17T05:37:35.317Z,6.95
2022-08-17T05:40:05.531Z,7.45
2022-08-17T05:42:35.888Z,7.03
2022-08-17T05:45:07.707Z,8.02
2022-08-17T05:47:41.558Z,7.10
2022-08-17T05:50:13.678Z,6.97
2022-08-17T05:52:53.021Z,6.65
2022-08-17T05:55:32.006Z,5.90
2022-08-17T05:58:14.460Z,6.95
2022-08-17T06:00:51.063Z,5.60
2022-08-17T06:03:45.879Z,6.30
2022-08-17T06:06:31.233Z,5.60
2022-08-17T06:09:22.827Z,5.47
2022-08-17T06:12:14.433Z,5.32
2022-08-17T06:15:07.718Z,5.47
2022-08-17T06:17:40.490Z,5.13
2022-08-17T06:22:53.729Z,4.95
2022-08-17T06:25:35.598Z,5.45
2022-08-17T06:28:16.552Z,5.03
2022-08-17T06:30:59.219Z,5.28
2022-08-17T06:33:36.390Z,5.20
2022-08-17T06:36:22.593Z,4.90
2022-08-17T06:39:06.079Z,5.97
2022-08-17T06:41:49.978Z,5.05
2022-08-17T06:44:43.434Z,5.00
2022-08-17T06:47:32.714Z,5.80
2022-08-17T06:50:20.275Z,5.72
2022-08-17T06:53:01.847Z,5.15
2022-08-17T06:55:44.329Z,5.28
2022-08-17T06:58:16.999Z,4.53
2022-08-17T07:00:56.636Z,4.65
2022-08-17T07:03:39.028Z,4.82
2022-08-17T07:06:15.882Z,4.90
2022-08-17T07:09:03.935Z,4.90
2022-08-17T07:11:41.916Z,5.25
2022-08-17T07:14:31.668Z,5.53
2022-08-17T07:17:06.221Z,5.13
2022-08-17T07:19:38.339Z,5.03
2022-08-17T07:22:19.407Z,5.83
2022-08-17T07:24:57.431Z,5.25
2022-08-17T07:27:31.399Z,5.78
2022-08-17T07:30:10.926Z,5.50
2022-08-17T07:32:45.454Z,5.03
2022-08-17T07:35:21.330Z,6.00
2022-08-17T07:37:54.304Z,5.60
2022-08-17T07:43:12.556Z,5.75
2022-08-17T07:46:18.556Z,4.93
2022-08-17T07:48:52.631Z,4.95
2022-08-17T07:51:36.337Z,4.82
2022-08-17T07:54:22.756Z,5.25
2022-08-17T07:56:57.521Z,5.38
2022-08-17T07:59:33.477Z,5.57
2022-08-17T08:02:19.362Z,5.43
2022-08-17T08:05:02.540Z,5.47
2022-08-17T08:07:37.534Z,5.10
2022-08-17T08:10:12.928Z,5.20
2022-08-17T08:12:48.697Z,5.60
2022-08-17T08:15:27.564Z,5.15
2022-08-17T08:18:00.643Z,5.10
2022-08-17T08:20:52.737Z,5.43
2022-08-17T08:23:37.654Z,5.53
2022-08-17T08:26:19.053Z,5.18
2022-08-17T08:29:00.629Z,5.32
2022-08-17T08:31:50.405Z,5.43
2022-08-17T08:34:59.103Z,5.15
2022-08-17T08:37:35.717Z,4.60
2022-08-17T08:40:19.530Z,4.57
2022-08-17T08:42:59.800Z,5.53
2022-08-17T08:45:44.186Z,4.10
2022-08-17T08:48:53.239Z,4.63
2022-08-17T08:51:22.158Z,5.68
2022-08-17T08:54:02.567Z,4.43
2022-08-17T08:56:49.710Z,5.05
2022-08-17T08:59:44.593Z,4.68
2022-08-17T09:02:48.304Z,4.20
2022-08-17T09:05:32.689Z,4.30
2022-08-17T09:08:14.046Z,4.75
2022-08-17T09:10:56.963Z,4.32
2022-08-17T09:16:06.252Z,4.32
2022-08-17T09:19:00.310Z,4.35
2022-08-17T09:21:44.606Z,4.15
2022-08-17T09:24:28.140Z,4.65
2022-08-17T09:27:06.257Z,4.22
2022-08-17T09:29:41.881Z,3.78
2022-08-17T09:32:20.612Z,3.80
2022-08-17T09:35:01.666Z,3.75
2022-08-17T09:37:40.813Z,4.15
2022-08-17T09:40:18.948Z,3.53
2022-08-17T09:42:54.377Z,4.25
2022-08-17T09:45:35.974Z,4.43
2022-08-17T09:48:14.607Z,3.22
2022-08-17T09:51:04.812Z,2.95
2022-08-17T09:53:38.746Z,3.17
2022-08-17T09:59:11.313Z,4.50
2022-08-17T10:01:51.555Z,2.90
2022-08-17T10:04:37.178Z,2.70
2022-08-17T10:07:20.988Z,2.92
2022-08-17T10:10:03.294Z,3.33
2022-08-17T10:12:48.475Z,3.28
2022-08-17T10:15:41.671Z,3.10
2022-08-17T10:18:45.453Z,3.08
2022-08-17T10:21:31.833Z,3.10
2022-08-17T10:24:25.141Z,3.28
2022-08-17T10:26:59.656Z,3.05
2022-08-17T10:29:48.470Z,3.42
2022-08-17T10:32:32.738Z,3.15
2022-08-17T10:35:22.726Z,3.00
2022-08-17T10:38:30.501Z,2.88
2022-08-17T10:41:09.144Z,2.90
2022-08-17T10:44:38.973Z,3.25
2022-08-17T10:47:01.498Z,2.83
2022-08-17T10:52:36.508Z,2.83
2022-08-17T10:55:16.598Z,2.65
2022-08-17T10:57:55.028Z,2.42
2022-08-17T11:01:13.511Z,2.40
2022-08-17T11:03:57.030Z,2.40
2022-08-17T11:06:45.436Z,2.25
2022-08-17T11:09:40.403Z,2.45
2022-08-17T11:12:35.742Z,2.80
2022-08-17T11:15:33.814Z,2.45
2022-08-17T11:18:30.869Z,2.65
2022-08-17T11:21:23.953Z,3.10
2022-08-17T11:24:23.349Z,2.78
2022-08-17T11:27:08.085Z,2.50
2022-08-17T11:29:59.473Z,2.55
2022-08-17T11:32:47.802Z,2.67
2022-08-17T11:35:36.149Z,2.38
2022-08-17T11:38:18.864Z,2.08
2022-08-17T11:43:59.394Z,1.85
2022-08-17T11:46:57.685Z,2.50
2022-08-17T11:49:58.628Z,2.00
2022-08-17T11:52:46.023Z,2.30
2022-08-17T11:55:52.207Z,2.10
2022-08-17T11:58:39.573Z,2.53
2022-08-17T12:01:13.818Z,2.10
2022-08-17T12:03:55.629Z,2.30
2022-08-17T12:06:57.639Z,2.47
2022-08-17T12:09:32.887Z,2.42
2022-08-17T12:12:14.298Z,2.20
2022-08-17T12:15:11.401Z,2.58
2022-08-17T12:17:46.498Z,2.38
2022-08-17T12:20:23.541Z,2.13
2022-08-17T12:23:05.356Z,2.08
2022-08-17T12:25:42.176Z,2.53
2022-08-17T12:28:24.741Z,2.58
2022-08-17T12:30:56.583Z,2.38
2022-08-17T12:33:29.078Z,2.00
2022-08-17T12:38:35.132Z,2.10
2022-08-17T12:41:26.986Z,2.20
2022-08-17T12:44:01.795Z,2.33
2022-08-17T12:46:35.074Z,2.03
2022-08-17T12:49:20.116Z,2.58
2022-08-17T12:51:51.029Z,2.50
2022-08-17T12:54:32.650Z,2.15
2022-08-17T12:57:08.870Z,1.92
2022-08-17T12:59:45.316Z,2.00
2022-08-17T13:02:28.529Z,3.70
2022-08-17T13:05:00.348Z,2.78
2022-08-17T13:07:32.698Z,2.13
2022-08-17T13:10:07.265Z,2.30
2022-08-17T13:12:39.249Z,2.00
2022-08-17T13:15:10.503Z,2.22
2022-08-17T13:17:58.557Z,2.13
2022-08-17T13:20:29.614Z,2.17
2022-08-17T13:23:01.781Z,2.20
2022-08-17T13:25:35.284Z,2.17
2022-08-17T13:28:06.139Z,1.95
2022-08-17T13:30:36.586Z,2.00
2022-08-17T13:33:33.983Z,1.92
2022-08-17T13:36:19.323Z,2.15
2022-08-17T13:38:52.408Z,3.00
2022-08-17T13:41:38.070Z,2.35
2022-08-17T13:44:39.576Z,2.40
2022-08-17T13:47:20.093Z,2.40
2022-08-17T13:49:50.808Z,2.20
2022-08-17T13:52:38.529Z,2.28
2022-08-17T13:55:19.227Z,2.05
2022-08-17T13:58:06.649Z,1.98
2022-08-17T14:00:41.018Z,2.60
2022-08-17T14:03:11.308Z,1.90
2022-08-17T14:05:48.603Z,2.50
2022-08-17T14:08:28.851Z,2.35
2022-08-17T14:11:04.947Z,2.28
2022-08-17T14:13:37.746Z,2.08
2022-08-17T14:16:13.498Z,1.77
2022-08-17T14:18:56.176Z,1.98
2022-08-17T14:21:35.609Z,2.22
2022-08-17T14:24:06.459Z,2.47
2022-08-17T14:26:36.663Z,2.45
2022-08-17T14:29:12.598Z,2.55
2022-08-17T14:31:53.318Z,2.33
2022-08-17T14:34:24.831Z,2.13
2022-08-17T14:36:56.638Z,2.38
2022-08-17T14:39:26.899Z,2.20
2022-08-17T14:41:58.749Z,2.10
2022-08-17T14:44:31.575Z,2.53
2022-08-17T14:47:07.818Z,2.53
2022-08-17T14:49:47.510Z,2.40
2022-08-17T14:52:21.753Z,3.30
2022-08-17T14:54:53.055Z,2.30
2022-08-17T14:57:33.795Z,2.25
2022-08-17T15:00:09.032Z,2.38
2022-08-17T15:02:48.330Z,2.38
2022-08-17T15:05:19.910Z,2.22
2022-08-17T15:07:50.214Z,2.08
2022-08-17T15:10:20.897Z,2.65
2022-08-17T15:12:51.989Z,1.58
2022-08-17T15:15:25.042Z,1.98
2022-08-17T15:17:55.752Z,2.00
2022-08-17T15:20:29.943Z,2.10
2022-08-17T15:23:01.144Z,2.15
2022-08-17T15:25:33.156Z,2.20
2022-08-17T15:28:04.062Z,2.05
2022-08-17T15:30:37.667Z,1.75
2022-08-17T15:33:07.891Z,1.95
2022-08-17T15:35:38.217Z,1.92
2022-08-17T15:38:12.273Z,2.30
2022-08-17T15:40:45.508Z,1.83
2022-08-17T15:43:22.020Z,1.45
2022-08-17T15:46:01.760Z,1.95
2022-08-17T15:48:43.573Z,2.03
2022-08-17T15:51:16.080Z,1.60
2022-08-17T15:56:17.247Z,1.90
2022-08-17T15:58:49.768Z,1.90
2022-08-17T16:04:29.764Z,1.70
2022-08-17T16:07:00.698Z,1.90
2022-08-17T16:09:30.880Z,2.20
2022-08-17T16:12:01.289Z,2.35
2022-08-17T16:14:35.218Z,1.90
2022-08-17T16:17:38.990Z,2.00
2022-08-17T16:19:59.983Z,2.35
2022-08-17T16:22:36.586Z,1.77
2022-08-17T16:25:09.947Z,1.90
2022-08-17T16:27:40.177Z,2.17
2022-08-17T16:30:16.928Z,2.03
2022-08-17T16:32:51.699Z,1.83
2022-08-17T16:35:25.272Z,2.10
2022-08-17T16:37:56.567Z,1.75
2022-08-17T16:40:33.140Z,1.73
2022-08-17T16:43:10.702Z,1.83
2022-08-17T16:45:44.323Z,2.35
2022-08-17T16:48:19.925Z,2.22
2022-08-17T16:51:02.917Z,2.15
2022-08-17T16:53:33.873Z,2.20
2022-08-17T16:56:07.683Z,2.30
2022-08-17T16:58:41.078Z,2.28
2022-08-17T17:01:13.014Z,1.75
2022-08-17T17:03:49.743Z,2.05
2022-08-17T17:06:28.574Z,1.75
2022-08-17T17:09:02.609Z,2.08
2022-08-17T17:11:38.965Z,2.00
2022-08-17T17:14:13.249Z,2.28
2022-08-17T17:16:52.639Z,2.30
2022-08-17T17:19:35.216Z,2.30
2022-08-17T17:22:16.847Z,2.00
2022-08-17T17:24:54.813Z,2.25
2022-08-17T17:27:37.146Z,2.60
2022-08-17T17:30:12.845Z,2.13
2022-08-17T17:32:52.943Z,2.78
2022-08-17T17:35:34.695Z,2.10
2022-08-17T17:38:12.744Z,2.42
2022-08-17T17:40:47.291Z,3.17
2022-08-17T17:43:38.487Z,2.75
2022-08-17T17:46:28.380Z,2.28
2022-08-17T17:48:59.689Z,2.10
2022-08-17T17:52:05.899Z,2.45
2022-08-17T17:54:52.714Z,2.67
2022-08-17T17:57:33.997Z,3.08
2022-08-17T18:00:11.027Z,4.35
2022-08-17T18:03:11.616Z,2.92
2022-08-17T18:06:05.974Z,2.90
2022-08-17T18:08:57.359Z,3.33
2022-08-17T18:12:03.256Z,3.80
2022-08-17T18:14:59.849Z,3.63
2022-08-17T18:17:34.292Z,3.97
2022-08-17T18:20:04.948Z,2.80
2022-08-17T18:22:35.861Z,2.42
2022-08-17T18:25:44.567Z,3.35
2022-08-17T18:28:28.463Z,2.80
2022-08-17T18:31:12.333Z,3.65
2022-08-17T18:33:44.817Z,3.08
2022-08-17T18:36:15.925Z,3.85
2022-08-17T18:38:47.323Z,4.32
2022-08-17T18:41:36.026Z,3.92
2022-08-17T18:44:08.870Z,3.72
2022-08-17T18:46:44.802Z,3.38
2022-08-17T18:49:30.306Z,3.30
2022-08-17T18:52:14.955Z,4.53
2022-08-17T18:55:08.837Z,3.45
2022-08-17T18:57:45.876Z,5.00
2022-08-17T19:00:22.158Z,3.33
2022-08-17T19:02:57.075Z,2.90
2022-08-17T19:05:41.316Z,3.67
2022-08-17T19:08:22.652Z,3.50
2022-08-17T19:10:56.056Z,3.33
2022-08-17T19:16:13.955Z,3.83
2022-08-17T19:18:48.620Z,3.40
2022-08-17T19:21:23.409Z,3.08
2022-08-17T19:23:59.491Z,3.40
2022-08-17T19:26:50.586Z,3.47
2022-08-17T19:29:29.694Z,3.08
2022-08-17T19:32:00.597Z,3.30
2022-08-17T19:34:34.981Z,3.75
2022-08-17T19:37:11.736Z,3.22
2022-08-17T19:39:50.433Z,3.65
2022-08-17T19:42:32.618Z,3.20
2022-08-17T19:45:18.038Z,3.22
2022-08-17T19:47:58.537Z,3.50
2022-08-17T19:50:41.159Z,3.03
2022-08-17T19:53:23.576Z,3.25
2022-08-17T19:56:02.891Z,3.55
2022-08-17T19:58:54.710Z,3.25
2022-08-17T20:01:37.664Z,4.32
2022-08-17T20:04:14.667Z,3.75
2022-08-17T20:06:49.683Z,3.88
2022-08-17T20:09:29.619Z,3.78
2022-08-17T20:12:08.882Z,3.28
2022-08-17T20:14:55.333Z,3.73
2022-08-17T20:17:33.896Z,3.78
2022-08-17T20:20:19.896Z,4.15
2022-08-17T20:22:57.005Z,4.10
2022-08-17T20:25:34.492Z,3.40
2022-08-17T20:28:08.043Z,3.53
2022-08-17T20:30:41.291Z,3.83
2022-08-17T20:33:29.219Z,3.78
2022-08-17T20:36:20.797Z,3.50
2022-08-17T20:38:54.193Z,3.58
2022-08-17T20:41:27.525Z,3.78
2022-08-17T20:44:07.856Z,3.55
2022-08-17T20:47:00.390Z,4.18
2022-08-17T20:49:57.503Z,4.03
2022-08-17T20:52:51.380Z,5.18
2022-08-17T20:55:53.108Z,5.65
2022-08-17T20:58:48.917Z,4.22
2022-08-17T21:01:26.222Z,4.32
2022-08-17T21:03:57.681Z,4.50
2022-08-17T21:06:31.786Z,4.20
2022-08-17T21:09:32.202Z,3.53
2022-08-17T21:12:05.732Z,3.75
2022-08-17T21:14:47.047Z,4.07
2022-08-17T21:17:40.172Z,4.05
2022-08-17T21:20:27.946Z,3.80
2022-08-17T21:23:43.468Z,3.47
2022-08-17T21:26:29.627Z,3.55
2022-08-17T21:29:29.997Z,2.90
2022-08-17T21:32:23.733Z,3.55
2022-08-17T21:37:45.315Z,4.15
2022-08-17T21:40:29.230Z,3.58
2022-08-17T21:43:03.312Z,3.45
2022-08-17T21:45:39.640Z,3.67
2022-08-17T21:48:17.429Z,2.90
2022-08-17T21:50:59.290Z,3.45
2022-08-17T21:53:37.100Z,3.05
2022-08-17T21:56:10.928Z,3.95
2022-08-17T21:58:48.303Z,3.47
2022-08-17T22:01:26.652Z,3.20
2022-08-17T22:04:04.068Z,4.30
2022-08-17T22:06:39.841Z,3.58
2022-08-17T22:09:18.597Z,3.00
2022-08-17T22:12:01.870Z,3.30
2022-08-17T22:14:52.576Z,3.15
2022-08-17T22:17:26.822Z,3.78
2022-08-17T22:19:59.776Z,3.17
2022-08-17T22:23:00.730Z,3.28
2022-08-17T22:25:31.212Z,2.72
2022-08-17T22:28:07.135Z,3.60
2022-08-17T22:30:40.515Z,3.38
2022-08-17T22:33:32.999Z,3.20
2022-08-17T22:36:24.841Z,3.63
2022-08-17T22:38:56.617Z,3.40
2022-08-17T22:41:46.572Z,3.78
2022-08-17T22:44:26.121Z,3.70
2022-08-17T22:47:11.362Z,3.17
2022-08-17T22:49:54.703Z,4.18
2022-08-17T22:52:56.305Z,3.42
2022-08-17T22:55:39.733Z,3.20
2022-08-17T22:58:25.825Z,3.38
2022-08-17T23:00:59.001Z,3.65
2022-08-17T23:06:09.980Z,3.60
2022-08-17T23:08:48.564Z,3.42
2022-08-17T23:11:18.737Z,3.70
2022-08-17T23:13:49.097Z,4.03
2022-08-17T23:16:22.711Z,4.78
2022-08-17T23:18:53.591Z,3.97
2022-08-17T23:21:27.422Z,4.18
2022-08-17T23:23:59.226Z,4.25
2022-08-17T23:26:30.138Z,3.75
2022-08-17T23:29:04.581Z,3.70
2022-08-17T23:31:39.284Z,3.50
2022-08-17T23:34:14.875Z,3.88
2022-08-17T23:36:52.993Z,3.22
2022-08-17T23:39:27.462Z,3.83
2022-08-17T23:41:59.338Z,4.15
2022-08-17T23:44:31.170Z,4.05
2022-08-17T23:47:04.995Z,3.53
2022-08-17T23:49:36.262Z,3.97
2022-08-17T23:52:12.738Z,4.37
2022-08-17T23:54:47.559Z,4.15
2022-08-17T23:57:20.420Z,4.25
